createdAt,value
2023-02-09T00:00:10.362Z,0.00
2023-02-09T00:01:10.372Z,0.00
2023-02-09T00:02:10.420Z,0.00
2023-02-09T00:03:10.325Z,0.00
2023-02-09T00:04:10.344Z,0.00
2023-02-09T00:05:10.314Z,0.00
2023-02-09T00:06:10.309Z,0.00
2023-02-09T00:07:10.292Z,0.00
2023-02-09T00:08:10.283Z,0.00
2023-02-09T00:09:10.283Z,0.00
2023-02-09T00:10:10.262Z,0.00
2023-02-09T00:11:10.247Z,0.00
2023-02-09T00:12:10.241Z,0.00
2023-02-09T00:13:10.220Z,0.00
2023-02-09T00:14:10.231Z,0.00
2023-02-09T00:15:10.203Z,0.00
2023-02-09T00:16:10.225Z,0.00
2023-02-09T00:17:10.228Z,0.00
2023-02-09T00:18:10.175Z,0.00
2023-02-09T00:19:10.191Z,0.00
2023-02-09T00:20:10.150Z,0.00
2023-02-09T00:21:10.140Z,0.00
2023-02-09T00:22:10.132Z,0.00
2023-02-09T00:23:10.114Z,0.00
2023-02-09T00:24:10.142Z,0.00
2023-02-09T00:25:10.103Z,0.00
2023-02-09T00:26:10.088Z,0.00
2023-02-09T00:27:10.071Z,0.00
2023-02-09T00:28:10.130Z,0.00
2023-02-09T00:29:10.056Z,0.00
2023-02-09T00:30:10.071Z,0.00
2023-02-09T00:31:10.103Z,0.00
2023-02-09T00:32:10.116Z,0.00
2023-02-09T00:33:10.025Z,0.00
2023-02-09T00:34:09.994Z,0.00
2023-02-09T00:35:10.017Z,0.00
2023-02-09T00:36:09.981Z,0.00
2023-02-09T00:37:09.974Z,0.00
2023-02-09T00:38:09.953Z,0.00
2023-02-09T00:39:09.944Z,0.00
2023-02-09T00:40:09.958Z,0.00
2023-02-09T00:41:09.921Z,0.00
2023-02-09T00:42:09.912Z,0.00
2023-02-09T00:43:09.908Z,0.00
2023-02-09T00:44:09.891Z,0.00
2023-02-09T00:45:09.902Z,0.00
2023-02-09T00:46:09.945Z,0.00
2023-02-09T00:47:09.858Z,0.00
2023-02-09T00:48:09.843Z,0.00
2023-02-09T00:49:09.860Z,0.00
2023-02-09T00:50:09.828Z,0.00
2023-02-09T00:51:09.843Z,0.00
2023-02-09T00:52:10.231Z,0.00
2023-02-09T00:53:09.794Z,0.00
2023-02-09T00:54:09.781Z,0.00
2023-02-09T00:55:09.775Z,0.00
2023-02-09T00:56:09.786Z,0.00
2023-02-09T00:57:09.779Z,0.00
2023-02-09T00:58:09.737Z,0.00
2023-02-09T00:59:09.728Z,0.00
2023-02-09T01:00:09.715Z,0.00
2023-02-09T01:01:09.798Z,0.00
2023-02-09T01:02:09.693Z,0.00
2023-02-09T01:03:09.692Z,0.00
2023-02-09T01:04:09.674Z,0.00
2023-02-09T01:05:09.690Z,0.00
2023-02-09T01:06:09.685Z,0.00
2023-02-09T01:07:09.652Z,0.00
2023-02-09T01:08:09.622Z,0.00
2023-02-09T01:09:09.621Z,0.00
2023-02-09T01:10:09.619Z,0.00
2023-02-09T01:11:09.619Z,0.00
2023-02-09T01:12:09.586Z,0.00
2023-02-09T01:13:09.581Z,0.00
2023-02-09T01:14:09.564Z,0.00
2023-02-09T01:15:09.554Z,0.00
2023-02-09T01:16:09.563Z,0.00
2023-02-09T01:17:09.608Z,0.00
2023-02-09T01:18:09.523Z,0.00
2023-02-09T01:19:09.536Z,0.00
2023-02-09T01:20:09.501Z,0.00
2023-02-09T01:21:09.523Z,0.00
2023-02-09T01:22:09.476Z,0.00
2023-02-09T01:23:09.471Z,0.00
2023-02-09T01:24:09.482Z,0.00
2023-02-09T01:25:09.443Z,0.00
2023-02-09T01:26:09.431Z,0.00
2023-02-09T01:27:09.445Z,0.00
2023-02-09T01:28:09.549Z,0.00
2023-02-09T01:29:09.404Z,0.00
2023-02-09T01:30:09.392Z,0.00
2023-02-09T01:31:09.506Z,0.00
2023-02-09T01:32:09.438Z,0.00
2023-02-09T01:33:09.365Z,0.00
2023-02-09T01:34:09.369Z,0.00
2023-02-09T01:35:09.341Z,0.00
2023-02-09T01:36:09.332Z,0.00
2023-02-09T01:37:09.353Z,0.00
2023-02-09T01:38:09.321Z,0.00
2023-02-09T01:39:09.299Z,0.00
2023-02-09T01:40:09.278Z,0.00
2023-02-09T01:41:09.269Z,0.00
2023-02-09T01:42:09.256Z,0.00
2023-02-09T01:43:09.278Z,0.00
2023-02-09T01:44:09.242Z,0.00
2023-02-09T01:45:09.234Z,0.00
2023-02-09T01:46:09.231Z,0.00
2023-02-09T01:47:09.214Z,0.00
2023-02-09T01:48:09.224Z,0.00
2023-02-09T01:49:09.188Z,0.00
2023-02-09T01:50:09.179Z,0.00
2023-02-09T01:51:09.172Z,0.00
2023-02-09T01:52:09.167Z,0.00
2023-02-09T01:53:09.197Z,0.00
2023-02-09T01:54:09.142Z,0.00
2023-02-09T01:55:09.123Z,0.00
2023-02-09T01:56:10.200Z,0.00
2023-02-09T01:57:09.111Z,0.00
2023-02-09T01:58:09.113Z,0.00
2023-02-09T01:59:09.083Z,0.00
2023-02-09T02:00:09.088Z,0.00
2023-02-09T02:01:09.162Z,0.00
2023-02-09T02:02:09.068Z,0.00
2023-02-09T02:03:09.046Z,0.00
2023-02-09T02:04:09.044Z,0.00
2023-02-09T02:05:09.021Z,0.00
2023-02-09T02:06:09.038Z,0.00
2023-02-09T02:07:09.001Z,0.00
2023-02-09T02:08:08.984Z,0.00
2023-02-09T02:09:09.001Z,0.00
2023-02-09T02:10:08.958Z,0.00
2023-02-09T02:11:08.982Z,0.00
2023-02-09T02:12:08.960Z,0.00
2023-02-09T02:13:08.937Z,0.00
2023-02-09T02:14:08.920Z,0.00
2023-02-09T02:15:08.916Z,0.00
2023-02-09T02:16:08.948Z,0.00
2023-02-09T02:17:08.933Z,0.00
2023-02-09T02:18:08.870Z,0.00
2023-02-09T02:19:08.883Z,0.00
2023-02-09T02:20:08.864Z,0.00
2023-02-09T02:21:08.841Z,0.00
2023-02-09T02:22:08.858Z,0.00
2023-02-09T02:23:08.836Z,0.00
2023-02-09T02:24:08.808Z,0.00
2023-02-09T02:25:08.819Z,0.00
2023-02-09T02:26:08.783Z,0.00
2023-02-09T02:27:08.794Z,0.00
2023-02-09T02:28:08.821Z,0.00
2023-02-09T02:29:08.757Z,0.00
2023-02-09T02:30:08.740Z,0.00
2023-02-09T02:31:08.933Z,0.00
2023-02-09T02:32:08.735Z,0.00
2023-02-09T02:33:08.730Z,0.00
2023-02-09T02:34:08.695Z,0.00
2023-02-09T02:35:08.693Z,0.00
2023-02-09T02:36:08.717Z,0.00
2023-02-09T02:37:08.678Z,0.00
2023-02-09T02:38:08.657Z,0.00
2023-02-09T02:39:08.651Z,0.00
2023-02-09T02:40:08.631Z,0.00
2023-02-09T02:41:08.673Z,0.00
2023-02-09T02:42:08.633Z,0.00
2023-02-09T02:43:08.638Z,0.00
2023-02-09T02:44:08.591Z,0.00
2023-02-09T02:45:08.637Z,0.00
2023-02-09T02:46:08.587Z,0.00
2023-02-09T02:47:08.562Z,0.00
2023-02-09T02:48:08.573Z,0.00
2023-02-09T02:49:08.540Z,0.00
2023-02-09T02:50:08.533Z,0.00
2023-02-09T02:51:08.575Z,0.00
2023-02-09T02:52:08.508Z,0.00
2023-02-09T02:53:08.530Z,0.00
2023-02-09T02:54:08.487Z,0.00
2023-02-09T02:55:08.492Z,0.00
2023-02-09T02:56:08.468Z,0.00
2023-02-09T02:57:08.514Z,0.00
2023-02-09T02:58:08.450Z,0.00
2023-02-09T02:59:08.453Z,0.00
2023-02-09T03:00:08.427Z,0.00
2023-02-09T03:01:08.423Z,0.00
2023-02-09T03:02:08.419Z,0.00
2023-02-09T03:03:08.422Z,0.00
2023-02-09T03:04:08.380Z,0.00
2023-02-09T03:05:08.406Z,0.00
2023-02-09T03:06:08.380Z,0.00
2023-02-09T03:07:08.392Z,0.00
2023-02-09T03:08:08.366Z,0.00
2023-02-09T03:09:08.331Z,0.00
2023-02-09T03:10:08.320Z,0.00
2023-02-09T03:11:08.314Z,0.00
2023-02-09T03:12:08.304Z,0.00
2023-02-09T03:13:08.353Z,0.00
2023-02-09T03:14:08.269Z,0.00
2023-02-09T03:15:08.278Z,0.00
2023-02-09T03:16:08.332Z,0.00
2023-02-09T03:17:08.249Z,0.00
2023-02-09T03:18:08.262Z,0.00
2023-02-09T03:19:08.225Z,0.00
2023-02-09T03:20:08.208Z,0.00
2023-02-09T03:21:08.212Z,0.00
2023-02-09T03:22:08.215Z,0.00
2023-02-09T03:23:08.200Z,0.00
2023-02-09T03:24:08.168Z,0.00
2023-02-09T03:25:08.162Z,0.00
2023-02-09T03:26:08.146Z,0.00
2023-02-09T03:27:08.147Z,0.00
2023-02-09T03:28:08.246Z,0.00
2023-02-09T03:29:08.147Z,0.00
2023-02-09T03:30:08.104Z,0.00
2023-02-09T03:31:08.246Z,0.00
2023-02-09T03:32:08.085Z,0.00
2023-02-09T03:33:10.394Z,0.00
2023-02-09T03:34:08.062Z,0.00
2023-02-09T03:35:08.050Z,0.00
2023-02-09T03:36:08.050Z,0.00
2023-02-09T03:37:08.038Z,0.00
2023-02-09T03:38:08.040Z,0.00
2023-02-09T03:39:08.044Z,0.00
2023-02-09T03:40:07.988Z,0.00
2023-02-09T03:41:08.209Z,0.00
2023-02-09T03:42:07.978Z,0.00
2023-02-09T03:43:07.991Z,0.00
2023-02-09T03:44:07.953Z,0.00
2023-02-09T03:45:08.030Z,0.00
2023-02-09T03:46:07.986Z,0.00
2023-02-09T03:47:07.921Z,0.00
2023-02-09T03:48:07.942Z,0.00
2023-02-09T03:49:07.926Z,0.00
2023-02-09T03:50:07.902Z,0.00
2023-02-09T03:51:07.896Z,0.00
2023-02-09T03:52:07.867Z,0.00
2023-02-09T03:53:07.882Z,0.00
2023-02-09T03:54:07.872Z,0.00
2023-02-09T03:55:07.839Z,0.00
2023-02-09T03:56:07.822Z,0.00
2023-02-09T03:57:07.820Z,0.00
2023-02-09T03:58:07.814Z,0.00
2023-02-09T03:59:07.796Z,0.00
2023-02-09T04:00:07.789Z,0.00
2023-02-09T04:01:07.932Z,0.00
2023-02-09T04:02:07.888Z,0.00
2023-02-09T04:03:07.775Z,0.00
2023-02-09T04:04:07.738Z,0.00
2023-02-09T04:05:07.723Z,0.00
2023-02-09T04:06:07.712Z,0.00
2023-02-09T04:07:07.711Z,0.00
2023-02-09T04:08:07.714Z,0.00
2023-02-09T04:09:07.693Z,0.00
2023-02-09T04:10:07.676Z,0.00
2023-02-09T04:11:07.665Z,0.00
2023-02-09T04:12:07.647Z,0.00
2023-02-09T04:13:07.666Z,0.00
2023-02-09T04:14:07.626Z,0.00
2023-02-09T04:15:07.617Z,0.00
2023-02-09T04:16:07.674Z,0.00
2023-02-09T04:17:07.641Z,0.00
2023-02-09T04:18:07.579Z,0.00
2023-02-09T04:19:07.572Z,0.00
2023-02-09T04:20:07.560Z,0.00
2023-02-09T04:21:07.584Z,0.00
2023-02-09T04:22:07.561Z,0.00
2023-02-09T04:23:07.535Z,0.00
2023-02-09T04:24:07.518Z,0.00
2023-02-09T04:25:07.503Z,0.00
2023-02-09T04:26:07.496Z,0.00
2023-02-09T04:27:07.527Z,0.00
2023-02-09T04:28:07.587Z,0.00
2023-02-09T04:29:07.468Z,0.00
2023-02-09T04:30:07.454Z,0.00
2023-02-09T04:31:07.501Z,0.00
2023-02-09T04:32:07.601Z,0.00
2023-02-09T04:33:07.456Z,0.00
2023-02-09T04:34:07.412Z,0.00
2023-02-09T04:35:07.403Z,0.00
2023-02-09T04:36:07.393Z,0.00
2023-02-09T04:37:07.402Z,0.00
2023-02-09T04:38:07.395Z,0.00
2023-02-09T04:39:07.359Z,0.00
2023-02-09T04:40:07.869Z,0.00
2023-02-09T04:41:07.346Z,0.00
2023-02-09T04:42:07.333Z,0.00
2023-02-09T04:43:07.343Z,0.00
2023-02-09T04:44:07.309Z,0.00
2023-02-09T04:45:07.329Z,0.00
2023-02-09T04:46:07.328Z,0.00
2023-02-09T04:47:07.278Z,0.00
2023-02-09T04:48:07.263Z,0.00
2023-02-09T04:49:07.271Z,0.00
2023-02-09T04:50:07.267Z,0.00
2023-02-09T04:51:07.237Z,0.00
2023-02-09T04:52:07.226Z,0.00
2023-02-09T04:53:07.211Z,0.00
2023-02-09T04:54:07.222Z,0.00
2023-02-09T04:55:07.210Z,0.00
2023-02-09T04:56:07.186Z,0.00
2023-02-09T04:57:07.170Z,0.00
2023-02-09T04:58:07.158Z,0.00
2023-02-09T04:59:07.162Z,0.00
2023-02-09T05:00:07.154Z,0.00
2023-02-09T05:01:07.200Z,0.00
2023-02-09T05:02:07.121Z,0.00
2023-02-09T05:03:07.162Z,0.00
2023-02-09T05:04:07.100Z,0.00
2023-02-09T05:05:07.137Z,0.00
2023-02-09T05:06:07.097Z,0.00
2023-02-09T05:07:07.076Z,0.00
2023-02-09T05:08:07.055Z,0.00
2023-02-09T05:09:07.064Z,0.00
2023-02-09T05:10:07.034Z,0.00
2023-02-09T05:11:07.040Z,0.00
2023-02-09T05:12:07.008Z,0.00
2023-02-09T05:13:06.997Z,0.00
2023-02-09T05:14:07.022Z,0.00
2023-02-09T05:15:06.975Z,0.00
2023-02-09T05:16:07.011Z,0.00
2023-02-09T05:17:06.954Z,0.00
2023-02-09T05:18:06.949Z,0.00
2023-02-09T05:19:06.955Z,0.00
2023-02-09T05:20:06.928Z,0.00
2023-02-09T05:21:06.934Z,0.00
2023-02-09T05:22:06.935Z,0.00
2023-02-09T05:23:06.889Z,0.00
2023-02-09T05:24:06.912Z,0.00
2023-02-09T05:25:06.871Z,0.00
2023-02-09T05:26:06.863Z,0.00
2023-02-09T05:27:06.878Z,0.00
2023-02-09T05:28:06.901Z,0.00
2023-02-09T05:29:06.832Z,0.00
2023-02-09T05:30:06.814Z,0.00
2023-02-09T05:31:06.817Z,0.00
2023-02-09T05:32:06.871Z,0.00
2023-02-09T05:33:06.785Z,0.00
2023-02-09T05:34:06.775Z,0.00
2023-02-09T05:35:08.428Z,0.00
2023-02-09T05:36:06.755Z,0.00
2023-02-09T05:37:06.784Z,0.00
2023-02-09T05:38:06.734Z,0.00
2023-02-09T05:39:06.720Z,0.00
2023-02-09T05:40:06.711Z,0.00
2023-02-09T05:41:06.693Z,0.00
2023-02-09T05:42:06.718Z,0.00
2023-02-09T05:43:06.715Z,0.00
2023-02-09T05:44:06.670Z,0.00
2023-02-09T05:45:06.655Z,0.00
2023-02-09T05:46:08.411Z,0.00
2023-02-09T05:47:06.655Z,0.00
2023-02-09T05:48:06.626Z,0.00
2023-02-09T05:49:06.652Z,0.00
2023-02-09T05:50:06.606Z,0.00
2023-02-09T05:51:06.612Z,0.00
2023-02-09T05:52:06.580Z,0.00
2023-02-09T05:53:06.586Z,0.00
2023-02-09T05:54:06.584Z,0.00
2023-02-09T05:55:06.544Z,0.00
2023-02-09T05:56:06.559Z,0.00
2023-02-09T05:57:06.525Z,0.00
2023-02-09T05:58:06.520Z,0.00
2023-02-09T05:59:06.516Z,0.00
2023-02-09T06:00:06.495Z,0.00
2023-02-09T06:01:06.478Z,0.00
2023-02-09T06:02:06.538Z,0.00
2023-02-09T06:03:06.483Z,0.00
2023-02-09T06:04:06.491Z,0.00
2023-02-09T06:05:06.447Z,0.00
2023-02-09T06:06:06.425Z,0.00
2023-02-09T06:07:06.439Z,0.00
2023-02-09T06:08:06.404Z,0.00
2023-02-09T06:09:06.445Z,0.00
2023-02-09T06:10:06.386Z,0.00
2023-02-09T06:11:06.375Z,0.00
2023-02-09T06:12:06.385Z,0.00
2023-02-09T06:13:06.345Z,4.00
2023-02-09T06:14:06.362Z,0.00
2023-02-09T06:15:06.324Z,0.00
2023-02-09T06:16:06.405Z,0.00
2023-02-09T06:17:06.333Z,4.00
2023-02-09T06:18:06.298Z,0.00
2023-02-09T06:19:06.350Z,4.00
2023-02-09T06:20:06.284Z,4.00
2023-02-09T06:21:06.257Z,4.00
2023-02-09T06:22:06.253Z,4.00
2023-02-09T06:23:06.248Z,4.00
2023-02-09T06:24:06.253Z,8.00
2023-02-09T06:25:06.277Z,4.00
2023-02-09T06:26:06.225Z,8.00
2023-02-09T06:27:06.192Z,8.00
2023-02-09T06:28:06.291Z,12.00
2023-02-09T06:29:06.204Z,8.00
2023-02-09T06:30:06.180Z,12.00
2023-02-09T06:31:06.276Z,12.00
2023-02-09T06:32:06.310Z,12.00
2023-02-09T06:33:06.162Z,16.00
2023-02-09T06:34:06.147Z,16.00
2023-02-09T06:35:06.111Z,16.00
2023-02-09T06:36:06.122Z,20.00
2023-02-09T06:37:06.088Z,20.00
2023-02-09T06:38:06.084Z,24.00
2023-02-09T06:39:06.106Z,28.00
2023-02-09T06:40:06.065Z,28.00
2023-02-09T06:41:06.068Z,32.00
2023-02-09T06:42:06.043Z,32.00
2023-02-09T06:43:06.021Z,36.00
2023-02-09T06:44:06.050Z,36.00
2023-02-09T06:45:06.000Z,36.00
2023-02-09T06:46:06.060Z,40.00
2023-02-09T06:47:05.990Z,40.00
2023-02-09T06:48:05.973Z,44.00
2023-02-09T06:49:05.995Z,48.00
2023-02-09T06:50:05.961Z,52.00
2023-02-09T06:51:05.940Z,52.00
2023-02-09T06:52:05.932Z,56.00
2023-02-09T06:53:05.916Z,60.00
2023-02-09T06:54:05.932Z,60.00
2023-02-09T06:55:05.907Z,68.00
2023-02-09T06:56:05.895Z,68.00
2023-02-09T06:57:05.901Z,72.00
2023-02-09T06:58:05.875Z,72.00
2023-02-09T06:59:05.887Z,80.00
2023-02-09T07:00:05.881Z,80.00
2023-02-09T07:01:05.845Z,84.00
2023-02-09T07:02:05.944Z,88.00
2023-02-09T07:03:05.909Z,88.00
2023-02-09T07:04:05.818Z,92.00
2023-02-09T07:05:05.822Z,92.00
2023-02-09T07:06:05.784Z,96.00
2023-02-09T07:07:05.762Z,100.00
2023-02-09T07:08:05.796Z,104.00
2023-02-09T07:09:05.776Z,108.00
2023-02-09T07:10:05.764Z,108.00
2023-02-09T07:11:05.735Z,112.00
2023-02-09T07:12:05.754Z,116.00
2023-02-09T07:13:05.731Z,116.00
2023-02-09T07:14:05.715Z,124.00
2023-02-09T07:15:05.745Z,124.00
2023-02-09T07:16:05.741Z,124.00
2023-02-09T07:17:05.654Z,128.00
2023-02-09T07:18:05.690Z,132.00
2023-02-09T07:19:05.641Z,136.00
2023-02-09T07:20:05.667Z,140.00
2023-02-09T07:21:05.620Z,140.00
2023-02-09T07:22:05.607Z,144.00
2023-02-09T07:23:05.603Z,144.00
2023-02-09T07:24:05.598Z,152.00
2023-02-09T07:25:05.583Z,156.00
2023-02-09T07:26:05.588Z,156.00
2023-02-09T07:27:05.553Z,156.00
2023-02-09T07:28:05.602Z,164.00
2023-02-09T07:29:05.551Z,168.00
2023-02-09T07:30:05.526Z,168.00
2023-02-09T07:31:05.651Z,172.00
2023-02-09T07:32:05.573Z,172.00
2023-02-09T07:33:05.527Z,176.00
2023-02-09T07:34:05.479Z,176.00
2023-02-09T07:35:05.466Z,180.00
2023-02-09T07:36:05.487Z,184.00
2023-02-09T07:37:05.458Z,188.00
2023-02-09T07:38:05.469Z,188.00
2023-02-09T07:39:05.430Z,196.00
2023-02-09T07:40:05.421Z,196.00
2023-02-09T07:41:05.400Z,200.00
2023-02-09T07:42:05.396Z,204.00
2023-02-09T07:43:05.409Z,204.00
2023-02-09T07:44:05.368Z,208.00
2023-02-09T07:45:05.378Z,212.00
2023-02-09T07:46:05.350Z,212.00
2023-02-09T07:47:05.332Z,216.00
2023-02-09T07:48:05.357Z,220.00
2023-02-09T07:49:05.316Z,228.00
2023-02-09T07:50:05.302Z,224.00
2023-02-09T07:51:05.313Z,228.00
2023-02-09T07:52:05.307Z,236.00
2023-02-09T07:53:05.314Z,236.00
2023-02-09T07:54:07.305Z,248.00
2023-02-09T07:55:05.320Z,252.00
2023-02-09T07:56:05.261Z,260.00
2023-02-09T07:57:05.227Z,260.00
2023-02-09T07:58:05.217Z,268.00
2023-02-09T07:59:05.219Z,268.00
2023-02-09T08:00:05.198Z,268.00
2023-02-09T08:01:05.229Z,276.00
2023-02-09T08:02:05.282Z,280.00
2023-02-09T08:03:05.163Z,280.00
2023-02-09T08:04:05.169Z,292.00
2023-02-09T08:05:05.299Z,292.00
2023-02-09T08:06:05.180Z,300.00
2023-02-09T08:07:05.118Z,304.00
2023-02-09T08:08:05.122Z,312.00
2023-02-09T08:09:05.100Z,316.00
2023-02-09T08:10:05.100Z,320.00
2023-02-09T08:11:05.076Z,320.00
2023-02-09T08:12:05.168Z,328.00
2023-02-09T08:13:05.062Z,336.00
2023-02-09T08:14:05.043Z,336.00
2023-02-09T08:15:05.036Z,348.00
2023-02-09T08:16:05.114Z,356.00
2023-02-09T08:17:05.052Z,356.00
2023-02-09T08:18:05.005Z,372.00
2023-02-09T08:19:04.994Z,384.00
2023-02-09T08:20:04.995Z,392.00
2023-02-09T08:21:04.972Z,400.00
2023-02-09T08:22:04.994Z,404.00
2023-02-09T08:23:04.948Z,412.00
2023-02-09T08:24:04.951Z,408.00
2023-02-09T08:25:04.923Z,420.00
2023-02-09T08:26:04.923Z,420.00
2023-02-09T08:27:04.910Z,432.00
2023-02-09T08:28:04.995Z,436.00
2023-02-09T08:29:04.888Z,444.00
2023-02-09T08:30:04.877Z,444.00
2023-02-09T08:31:05.006Z,444.00
2023-02-09T08:32:04.954Z,444.00
2023-02-09T08:33:04.894Z,444.00
2023-02-09T08:34:04.858Z,444.00
2023-02-09T08:35:04.822Z,448.00
2023-02-09T08:36:04.818Z,452.00
2023-02-09T08:37:04.797Z,452.00
2023-02-09T08:38:04.824Z,460.00
2023-02-09T08:39:04.776Z,460.00
2023-02-09T08:40:04.808Z,464.00
2023-02-09T08:41:04.755Z,468.00
2023-02-09T08:42:04.751Z,472.00
2023-02-09T08:43:04.768Z,476.00
2023-02-09T08:44:04.734Z,480.00
2023-02-09T08:45:04.717Z,484.00
2023-02-09T08:46:04.880Z,484.00
2023-02-09T08:47:04.855Z,484.00
2023-02-09T08:48:04.713Z,484.00
2023-02-09T08:49:04.720Z,488.00
2023-02-09T08:50:04.660Z,488.00
2023-02-09T08:51:04.658Z,488.00
2023-02-09T08:52:04.644Z,488.00
2023-02-09T08:53:04.682Z,480.00
2023-02-09T08:54:04.624Z,476.00
2023-02-09T08:55:04.626Z,480.00
2023-02-09T08:56:04.599Z,480.00
2023-02-09T08:57:04.592Z,480.00
2023-02-09T08:58:04.611Z,484.00
2023-02-09T08:59:04.564Z,484.00
2023-02-09T09:00:04.574Z,484.00
2023-02-09T09:01:04.660Z,488.00
2023-02-09T09:02:04.576Z,488.00
2023-02-09T09:03:04.520Z,484.00
2023-02-09T09:04:04.618Z,484.00
2023-02-09T09:05:04.643Z,484.00
2023-02-09T09:06:04.526Z,484.00
2023-02-09T09:07:04.593Z,492.00
2023-02-09T09:08:04.472Z,492.00
2023-02-09T09:09:04.496Z,492.00
2023-02-09T09:10:04.471Z,484.00
2023-02-09T09:11:04.496Z,488.00
2023-02-09T09:12:04.464Z,496.00
2023-02-09T09:13:04.427Z,496.00
2023-02-09T09:14:04.402Z,496.00
2023-02-09T09:15:04.391Z,500.00
2023-02-09T09:16:05.351Z,508.00
2023-02-09T09:17:04.376Z,508.00
2023-02-09T09:18:04.387Z,512.00
2023-02-09T09:19:04.413Z,512.00
2023-02-09T09:20:04.351Z,512.00
2023-02-09T09:21:04.366Z,516.00
2023-02-09T09:22:04.352Z,528.00
2023-02-09T09:23:04.308Z,540.00
2023-02-09T09:24:04.298Z,552.00
2023-02-09T09:25:04.292Z,556.00
2023-02-09T09:26:04.275Z,548.00
2023-02-09T09:27:04.284Z,556.00
2023-02-09T09:28:04.315Z,560.00
2023-02-09T09:29:04.247Z,564.00
2023-02-09T09:30:04.236Z,576.00
2023-02-09T09:31:04.310Z,576.00
2023-02-09T09:32:04.300Z,584.00
2023-02-09T09:33:04.321Z,600.00
2023-02-09T09:34:04.207Z,616.00
2023-02-09T09:35:04.203Z,636.00
2023-02-09T09:36:04.185Z,652.00
2023-02-09T09:37:04.206Z,664.00
2023-02-09T09:38:04.147Z,676.00
2023-02-09T09:39:04.144Z,684.00
2023-02-09T09:40:04.125Z,692.00
2023-02-09T09:41:04.122Z,700.00
2023-02-09T09:42:04.135Z,716.00
2023-02-09T09:43:04.115Z,716.00
2023-02-09T09:44:04.082Z,728.00
2023-02-09T09:45:04.100Z,712.00
2023-02-09T09:46:04.122Z,712.00
2023-02-09T09:47:04.060Z,712.00
2023-02-09T09:48:04.047Z,712.00
2023-02-09T09:49:04.041Z,716.00
2023-02-09T09:50:04.045Z,716.00
2023-02-09T09:51:04.011Z,724.00
2023-02-09T09:52:04.015Z,724.00
2023-02-09T09:53:04.044Z,736.00
2023-02-09T09:54:04.001Z,748.00
2023-02-09T09:55:03.967Z,760.00
2023-02-09T09:56:03.958Z,756.00
2023-02-09T09:57:03.942Z,756.00
2023-02-09T09:58:03.929Z,752.00
2023-02-09T09:59:03.960Z,756.00
2023-02-09T10:00:03.904Z,756.00
2023-02-09T10:01:03.981Z,748.00
2023-02-09T10:02:03.995Z,744.00
2023-02-09T10:03:03.899Z,748.00
2023-02-09T10:04:03.889Z,752.00
2023-02-09T10:05:03.861Z,756.00
2023-02-09T10:06:03.849Z,760.00
2023-02-09T10:07:03.842Z,756.00
2023-02-09T10:08:03.835Z,760.00
2023-02-09T10:09:03.868Z,760.00
2023-02-09T10:10:03.801Z,760.00
2023-02-09T10:11:03.795Z,760.00
2023-02-09T10:12:03.781Z,760.00
2023-02-09T10:13:03.775Z,760.00
2023-02-09T10:14:03.779Z,768.00
2023-02-09T10:15:03.754Z,772.00
2023-02-09T10:16:03.734Z,772.00
2023-02-09T10:17:03.930Z,776.00
2023-02-09T10:18:03.714Z,764.00
2023-02-09T10:19:03.744Z,764.00
2023-02-09T10:20:03.687Z,764.00
2023-02-09T10:21:03.688Z,764.00
2023-02-09T10:22:03.669Z,776.00
2023-02-09T10:23:03.668Z,784.00
2023-02-09T10:24:03.672Z,776.00
2023-02-09T10:25:03.661Z,776.00
2023-02-09T10:26:03.663Z,768.00
2023-02-09T10:27:03.637Z,772.00
2023-02-09T10:28:03.632Z,764.00
2023-02-09T10:29:03.626Z,760.00
2023-02-09T10:30:03.598Z,752.00
2023-02-09T10:31:03.752Z,752.00
2023-02-09T10:32:03.712Z,744.00
2023-02-09T10:33:03.554Z,740.00
2023-02-09T10:34:03.566Z,736.00
2023-02-09T10:35:03.543Z,740.00
2023-02-09T10:36:03.555Z,748.00
2023-02-09T10:37:03.512Z,748.00
2023-02-09T10:38:03.496Z,752.00
2023-02-09T10:39:03.493Z,760.00
2023-02-09T10:40:03.502Z,764.00
2023-02-09T10:41:03.511Z,780.00
2023-02-09T10:42:03.482Z,784.00
2023-02-09T10:43:03.465Z,800.00
2023-02-09T10:44:03.430Z,812.00
2023-02-09T10:45:03.438Z,820.00
2023-02-09T10:46:03.523Z,828.00
2023-02-09T10:47:03.397Z,836.00
2023-02-09T10:48:03.392Z,856.00
2023-02-09T10:49:03.375Z,868.00
2023-02-09T10:50:03.388Z,868.00
2023-02-09T10:51:03.355Z,880.00
2023-02-09T10:52:03.352Z,888.00
2023-02-09T10:53:03.339Z,904.00
2023-02-09T10:54:03.326Z,908.00
2023-02-09T10:55:03.337Z,928.00
2023-02-09T10:56:03.309Z,940.00
2023-02-09T10:57:03.309Z,932.00
2023-02-09T10:58:03.302Z,944.00
2023-02-09T10:59:03.269Z,944.00
2023-02-09T11:00:03.254Z,948.00
2023-02-09T11:01:03.382Z,948.00
2023-02-09T11:02:03.336Z,960.00
2023-02-09T11:03:03.228Z,968.00
2023-02-09T11:04:03.448Z,968.00
2023-02-09T11:05:03.209Z,972.00
2023-02-09T11:06:03.247Z,980.00
2023-02-09T11:07:03.210Z,984.00
2023-02-09T11:08:03.184Z,972.00
2023-02-09T11:09:03.195Z,980.00
2023-02-09T11:10:03.201Z,972.00
2023-02-09T11:11:03.159Z,972.00
2023-02-09T11:12:03.161Z,976.00
2023-02-09T11:13:03.149Z,972.00
2023-02-09T11:14:03.111Z,960.00
2023-02-09T11:15:03.122Z,940.00
2023-02-09T11:16:03.182Z,924.00
2023-02-09T11:17:03.097Z,896.00
2023-02-09T11:18:03.062Z,864.00
2023-02-09T11:19:03.063Z,852.00
2023-02-09T11:20:03.073Z,828.00
2023-02-09T11:21:03.048Z,836.00
2023-02-09T11:22:03.036Z,832.00
2023-02-09T11:23:03.014Z,844.00
2023-02-09T11:24:03.046Z,880.00
2023-02-09T11:25:03.001Z,888.00
2023-02-09T11:26:02.991Z,896.00
2023-02-09T11:27:02.974Z,880.00
2023-02-09T11:28:03.010Z,840.00
2023-02-09T11:29:02.989Z,812.00
2023-02-09T11:30:02.937Z,800.00
2023-02-09T11:31:03.049Z,808.00
2023-02-09T11:32:03.004Z,832.00
2023-02-09T11:33:02.930Z,868.00
2023-02-09T11:34:02.901Z,964.00
2023-02-09T11:35:02.901Z,1040.00
2023-02-09T11:36:02.899Z,1100.00
2023-02-09T11:37:02.860Z,1024.00
2023-02-09T11:38:02.907Z,924.00
2023-02-09T11:39:02.863Z,868.00
2023-02-09T11:40:02.857Z,852.00
2023-02-09T11:41:02.820Z,852.00
2023-02-09T11:42:02.803Z,848.00
2023-02-09T11:43:02.802Z,1152.00
2023-02-09T11:44:02.809Z,1500.00
2023-02-09T11:45:02.814Z,1184.00
2023-02-09T11:46:02.831Z,836.00
2023-02-09T11:47:02.770Z,780.00
2023-02-09T11:48:02.745Z,756.00
2023-02-09T11:49:02.753Z,736.00
2023-02-09T11:50:02.720Z,732.00
2023-02-09T11:51:02.753Z,732.00
2023-02-09T11:52:02.712Z,728.00
2023-02-09T11:53:02.691Z,736.00
2023-02-09T11:54:02.690Z,736.00
2023-02-09T11:55:02.674Z,808.00
2023-02-09T11:56:02.678Z,788.00
2023-02-09T11:57:02.648Z,1448.00
2023-02-09T11:58:02.631Z,1524.00
2023-02-09T11:59:02.621Z,988.00
2023-02-09T12:00:02.612Z,824.00
2023-02-09T12:01:14.624Z,804.00
2023-02-09T12:02:03.588Z,768.00
2023-02-09T12:03:02.666Z,756.00
2023-02-09T12:04:02.587Z,756.00
2023-02-09T12:05:02.556Z,756.00
2023-02-09T12:06:02.598Z,752.00
2023-02-09T12:07:02.535Z,760.00
2023-02-09T12:08:02.524Z,756.00
2023-02-09T12:09:02.523Z,760.00
2023-02-09T12:10:02.528Z,768.00
2023-02-09T12:11:02.490Z,792.00
2023-02-09T12:12:02.479Z,800.00
2023-02-09T12:13:02.504Z,824.00
2023-02-09T12:14:02.458Z,836.00
2023-02-09T12:15:02.454Z,840.00
2023-02-09T12:16:02.547Z,852.00
2023-02-09T12:17:02.460Z,856.00
2023-02-09T12:18:02.433Z,888.00
2023-02-09T12:19:02.406Z,904.00
2023-02-09T12:20:02.400Z,932.00
2023-02-09T12:21:02.405Z,936.00
2023-02-09T12:22:02.380Z,896.00
2023-02-09T12:23:02.391Z,852.00
2023-02-09T12:24:02.394Z,916.00
2023-02-09T12:25:02.342Z,1260.00
2023-02-09T12:26:02.389Z,1688.00
2023-02-09T12:27:02.364Z,1292.00
2023-02-09T12:28:02.333Z,1544.00
2023-02-09T12:29:02.299Z,1552.00
2023-02-09T12:30:02.300Z,844.00
2023-02-09T12:31:02.396Z,660.00
2023-02-09T12:32:02.315Z,692.00
2023-02-09T12:33:02.278Z,748.00
2023-02-09T12:34:02.238Z,808.00
2023-02-09T12:35:02.258Z,736.00
2023-02-09T12:36:02.229Z,664.00
2023-02-09T12:37:02.284Z,636.00
2023-02-09T12:38:02.192Z,696.00
2023-02-09T12:39:05.907Z,712.00
2023-02-09T12:40:02.178Z,732.00
2023-02-09T12:41:02.163Z,752.00
2023-02-09T12:42:02.185Z,780.00
2023-02-09T12:43:02.150Z,932.00
2023-02-09T12:44:02.129Z,940.00
2023-02-09T12:45:02.133Z,800.00
2023-02-09T12:46:02.336Z,924.00
2023-02-09T12:47:02.265Z,1416.00
2023-02-09T12:48:02.112Z,976.00
2023-02-09T12:49:02.095Z,756.00
2023-02-09T12:50:02.060Z,708.00
2023-02-09T12:51:02.051Z,684.00
2023-02-09T12:52:02.078Z,708.00
2023-02-09T12:53:02.034Z,780.00